createdAt,value
2023-05-09T10:14:23.930Z,16.71
2023-05-09T10:16:57.228Z,16.79
2023-05-09T10:19:29.615Z,17.03
2023-05-09T10:22:01.979Z,16.89
2023-05-09T10:24:37.509Z,17.20
2023-05-09T10:27:10.076Z,16.90
2023-05-09T10:29:48.573Z,16.43
2023-05-09T10:32:21.460Z,17.08
2023-05-09T10:34:55.502Z,16.95
2023-05-09T10:37:25.972Z,16.76
2023-05-09T10:39:57.621Z,17.16
2023-05-09T10:42:28.452Z,17.45
2023-05-09T10:44:58.975Z,17.13
2023-05-09T10:47:32.037Z,17.42
2023-05-09T10:50:02.972Z,17.24
2023-05-09T10:52:35.823Z,17.24
2023-05-09T10:55:07.423Z,18.21
2023-05-09T10:57:39.977Z,18.13
2023-05-09T11:00:10.679Z,18.30
2023-05-09T11:02:39.518Z,18.16
2023-05-09T11:05:17.530Z,17.58
2023-05-09T11:07:47.797Z,17.97
2023-05-09T11:10:18.929Z,17.94
2023-05-09T11:12:57.575Z,17.67
2023-05-09T11:15:27.957Z,18.32
2023-05-09T11:18:10.178Z,18.66
2023-05-09T11:20:48.498Z,18.69
2023-05-09T11:23:20.234Z,18.16
2023-05-09T11:25:51.281Z,17.93
2023-05-09T11:28:31.690Z,18.81
2023-05-09T11:31:19.127Z,18.41
2023-05-09T11:33:53.267Z,18.27
2023-05-09T11:36:33.236Z,18.72
2023-05-09T11:39:06.276Z,18.68
2023-05-09T11:41:45.532Z,18.31
2023-05-09T11:44:21.300Z,18.26
2023-05-09T11:46:51.418Z,18.45
2023-05-09T11:49:21.488Z,18.36
2023-05-09T11:51:51.326Z,18.71
2023-05-09T11:54:21.302Z,18.47
2023-05-09T11:56:51.443Z,18.40
2023-05-09T11:59:21.566Z,18.70
2023-05-09T12:01:51.411Z,18.32
2023-05-09T12:04:21.250Z,18.67
2023-05-09T12:06:51.255Z,18.67
2023-05-09T12:09:21.133Z,18.78
2023-05-09T12:11:51.200Z,18.89
2023-05-09T12:14:29.313Z,18.18
2023-05-09T12:17:00.049Z,18.18
2023-05-09T12:19:30.056Z,18.59
2023-05-09T12:22:02.017Z,18.26
2023-05-09T12:24:32.451Z,18.32
2023-05-09T12:27:02.678Z,18.32
2023-05-09T12:29:32.998Z,19.06
2023-05-09T12:32:03.530Z,19.57
2023-05-09T12:34:33.374Z,19.21
2023-05-09T12:37:03.810Z,18.44
2023-05-09T12:39:33.783Z,18.60
2023-05-09T12:42:03.594Z,19.23
2023-05-09T12:44:33.988Z,19.54
2023-05-09T12:47:05.604Z,19.03
2023-05-09T12:49:38.405Z,19.21
2023-05-09T12:52:11.302Z,19.29
2023-05-09T12:54:42.593Z,19.08
2023-05-09T12:57:15.158Z,18.78
2023-05-09T12:59:45.430Z,19.09
2023-05-09T13:02:15.093Z,19.03
2023-05-09T13:04:44.997Z,18.59
2023-05-09T13:07:14.720Z,18.72
2023-05-09T13:09:57.234Z,19.05
2023-05-09T13:12:27.328Z,18.93
2023-05-09T13:14:56.885Z,19.33
2023-05-09T13:17:26.657Z,19.13
2023-05-09T13:19:56.506Z,18.75
2023-05-09T13:22:26.740Z,18.87
2023-05-09T13:24:56.981Z,18.95
2023-05-09T13:27:27.840Z,18.36
2023-05-09T13:29:57.664Z,18.86
2023-05-09T13:32:27.574Z,18.34
2023-05-09T13:34:57.423Z,18.76
2023-05-09T13:37:28.195Z,18.73
2023-05-09T13:39:58.171Z,18.48
2023-05-09T13:42:29.318Z,18.48
2023-05-09T13:44:59.162Z,18.41
2023-05-09T13:47:29.030Z,18.09
2023-05-09T13:49:58.928Z,18.61
2023-05-09T13:52:29.032Z,18.45
2023-05-09T13:54:58.882Z,18.45
2023-05-09T13:57:28.692Z,18.70
2023-05-09T13:59:58.584Z,18.84
2023-05-09T14:02:28.768Z,19.15
2023-05-09T14:04:58.976Z,18.87
2023-05-09T14:07:28.559Z,18.27
2023-05-09T14:10:10.918Z,18.13
2023-05-09T14:12:32.004Z,18.13
2023-05-09T14:15:02.212Z,18.39
2023-05-09T14:17:31.828Z,18.72
2023-05-09T14:20:01.835Z,18.90
2023-05-09T14:22:31.620Z,18.29
2023-05-09T14:25:01.748Z,18.26
2023-05-09T14:27:31.913Z,18.16
2023-05-09T14:30:01.860Z,17.97
2023-05-09T14:32:31.700Z,18.35
2023-05-09T14:35:01.526Z,17.97
2023-05-09T14:37:31.844Z,17.95
2023-05-09T14:40:03.127Z,17.96
2023-05-09T14:42:33.851Z,18.39
2023-05-09T14:45:03.697Z,18.14
2023-05-09T14:47:34.358Z,18.14
2023-05-09T14:50:04.526Z,18.01
2023-05-09T14:52:34.399Z,17.76
2023-05-09T14:55:06.156Z,17.89
2023-05-09T14:57:35.992Z,18.07
2023-05-09T15:00:20.330Z,18.07
2023-05-09T15:02:41.984Z,18.34
2023-05-09T15:05:11.788Z,18.38
2023-05-09T15:07:41.802Z,18.21
2023-05-09T15:10:12.102Z,17.92
2023-05-09T15:12:42.000Z,18.06
2023-05-09T15:15:20.516Z,18.01
2023-05-09T15:17:50.920Z,17.98
2023-05-09T15:20:20.898Z,17.97
2023-05-09T15:22:51.551Z,17.77
2023-05-09T15:25:21.798Z,17.70
2023-05-09T15:27:51.900Z,17.70
2023-05-09T15:30:21.787Z,17.75
2023-05-09T15:32:51.370Z,17.75
2023-05-09T15:35:21.204Z,17.78
2023-05-09T15:37:51.216Z,17.83
2023-05-09T15:40:20.877Z,17.63
2023-05-09T15:42:51.182Z,17.41
2023-05-09T15:45:20.766Z,17.49
2023-05-09T15:47:50.624Z,17.39
2023-05-09T15:50:20.243Z,17.50
2023-05-09T15:52:51.721Z,17.50
2023-05-09T15:55:21.689Z,17.61
2023-05-09T15:57:52.684Z,17.63
2023-05-09T16:00:22.549Z,17.83
2023-05-09T16:02:52.715Z,17.49
2023-05-09T16:05:22.678Z,17.36
2023-05-09T16:07:53.676Z,17.18
2023-05-09T16:10:23.480Z,17.45
2023-05-09T16:12:53.729Z,17.22
2023-05-09T16:15:23.348Z,17.22
2023-05-09T16:17:53.188Z,17.01
2023-05-09T16:20:22.934Z,17.04
2023-05-09T16:22:52.767Z,17.06
2023-05-09T16:25:22.553Z,17.12
2023-05-09T16:27:53.536Z,16.96
2023-05-09T16:30:23.335Z,16.83
2023-05-09T16:32:53.225Z,16.72
2023-05-09T16:35:23.208Z,16.83
2023-05-09T16:37:53.010Z,16.77
2023-05-09T16:40:22.638Z,16.57
2023-05-09T16:42:53.655Z,16.82
2023-05-09T16:45:23.464Z,16.75
2023-05-09T16:47:55.435Z,16.67
2023-05-09T16:50:26.282Z,16.61
2023-05-09T16:52:55.872Z,16.63
2023-05-09T16:55:25.882Z,16.65
2023-05-09T16:57:56.059Z,16.69
2023-05-09T17:00:26.115Z,16.61
2023-05-09T17:02:56.238Z,16.41
2023-05-09T17:05:26.251Z,16.50
2023-05-09T17:07:56.139Z,16.48
2023-05-09T17:10:26.123Z,16.36
2023-05-09T17:12:55.811Z,16.41
2023-05-09T17:15:25.842Z,16.28
2023-05-09T17:17:55.848Z,16.26
2023-05-09T17:20:26.269Z,16.27
2023-05-09T17:22:56.808Z,16.19
2023-05-09T17:25:26.642Z,16.14
2023-05-09T17:27:56.759Z,16.23
2023-05-09T17:30:27.018Z,16.06
2023-05-09T17:32:57.176Z,16.14
2023-05-09T17:35:26.999Z,15.92
2023-05-09T17:37:56.806Z,16.06
2023-05-09T17:40:26.690Z,16.11
2023-05-09T17:42:56.500Z,15.87
2023-05-09T17:45:26.776Z,15.80
2023-05-09T17:47:56.403Z,15.72
2023-05-09T17:50:26.237Z,15.81
2023-05-09T17:52:57.060Z,15.48
2023-05-09T17:55:26.906Z,15.47
2023-05-09T17:57:56.704Z,15.53
2023-05-09T18:00:26.622Z,15.14
2023-05-09T18:02:56.496Z,15.35
2023-05-09T18:05:26.893Z,15.24
2023-05-09T18:07:58.084Z,15.16
2023-05-09T18:10:28.932Z,14.91
2023-05-09T18:12:59.227Z,14.94
2023-05-09T18:15:29.342Z,14.77
2023-05-09T18:17:59.410Z,14.65
2023-05-09T18:20:29.702Z,14.59
2023-05-09T18:22:59.512Z,14.37
2023-05-09T18:25:29.402Z,14.40
2023-05-09T18:27:59.207Z,14.40
2023-05-09T18:30:29.085Z,14.41
2023-05-09T18:33:00.844Z,14.03
2023-05-09T18:35:30.572Z,14.03
2023-05-09T18:38:00.354Z,14.27
2023-05-09T18:40:30.162Z,14.16
2023-05-09T18:42:59.950Z,14.14
2023-05-09T18:45:30.857Z,14.31
2023-05-09T18:48:00.916Z,13.96
2023-05-09T18:50:31.511Z,13.90
2023-05-09T18:53:01.295Z,14.01
2023-05-09T18:55:31.261Z,14.03
2023-05-09T18:58:01.366Z,14.12
2023-05-09T19:00:31.170Z,13.94
2023-05-09T19:03:01.017Z,13.64
2023-05-09T19:05:30.937Z,13.89
2023-05-09T19:08:00.876Z,13.94
2023-05-09T19:10:30.892Z,13.73
2023-05-09T19:13:00.533Z,13.79
2023-05-09T19:15:30.332Z,13.79
2023-05-09T19:18:00.270Z,13.84
2023-05-09T19:20:30.183Z,13.77
2023-05-09T19:23:00.307Z,13.56
2023-05-09T19:25:31.557Z,13.58
2023-05-09T19:28:01.486Z,13.47
2023-05-09T19:30:31.567Z,13.39
2023-05-09T19:33:01.448Z,13.39
2023-05-09T19:35:31.330Z,13.23
2023-05-09T19:38:01.438Z,12.90
2023-05-09T19:40:31.613Z,12.90
2023-05-09T19:43:01.513Z,12.81
2023-05-09T19:45:31.745Z,12.80
2023-05-09T19:48:01.550Z,12.62
2023-05-09T19:50:31.420Z,12.40
2023-05-09T19:53:01.560Z,12.26
2023-05-09T19:55:31.419Z,12.31
2023-05-09T19:58:01.234Z,12.61
2023-05-09T20:00:32.141Z,12.20
2023-05-09T20:03:04.070Z,12.33
2023-05-09T20:08:21.608Z,12.46
2023-05-09T20:10:51.452Z,12.43
2023-05-09T20:13:21.211Z,12.46
2023-05-09T20:15:51.279Z,12.68
2023-05-09T20:18:21.131Z,12.53
2023-05-09T20:20:51.125Z,12.44
2023-05-09T20:23:20.984Z,12.52
2023-05-09T20:25:50.838Z,12.48
2023-05-09T20:28:22.400Z,12.20
2023-05-09T20:30:52.237Z,12.29
2023-05-09T20:33:22.151Z,12.53
2023-05-09T20:35:52.007Z,12.20
2023-05-09T20:38:21.618Z,12.43
2023-05-09T20:40:51.472Z,12.15
2023-05-09T20:43:21.315Z,12.15
2023-05-09T20:45:51.931Z,12.22
2023-05-09T20:48:23.431Z,12.44
2023-05-09T20:50:52.976Z,12.04
2023-05-09T20:53:24.478Z,11.93
2023-05-09T20:55:54.754Z,11.98
2023-05-09T20:58:24.615Z,11.96
2023-05-09T21:00:54.565Z,11.93
2023-05-09T21:03:24.460Z,11.98
2023-05-09T21:05:54.582Z,11.95
2023-05-09T21:08:24.508Z,12.01
2023-05-09T21:10:54.584Z,11.87
2023-05-09T21:13:24.459Z,11.93
2023-05-09T21:15:54.431Z,12.05
2023-05-09T21:18:24.145Z,11.67
2023-05-09T21:20:54.721Z,11.87
2023-05-09T21:23:24.368Z,11.87
2023-05-09T21:25:54.223Z,11.88
2023-05-09T21:28:24.050Z,11.59
2023-05-09T21:30:55.157Z,11.57
2023-05-09T21:33:25.275Z,11.51
2023-05-09T21:35:55.380Z,11.68
2023-05-09T21:38:25.266Z,11.40
2023-05-09T21:40:55.406Z,11.50
2023-05-09T21:43:24.971Z,11.30
2023-05-09T21:45:54.813Z,11.30
2023-05-09T21:48:24.445Z,11.60
2023-05-09T21:50:54.315Z,11.28
2023-05-09T21:53:23.946Z,11.30
2023-05-09T21:55:53.805Z,11.14
2023-05-09T21:58:23.343Z,11.26
2023-05-09T22:00:53.198Z,11.25
2023-05-09T22:03:23.303Z,11.28
2023-05-09T22:05:53.588Z,11.04
2023-05-09T22:08:23.727Z,10.96
2023-05-09T22:10:53.565Z,10.95
2023-05-09T22:13:23.294Z,11.19
2023-05-09T22:15:53.464Z,11.02
2023-05-09T22:18:23.150Z,11.05
2023-05-09T22:20:53.020Z,11.20
2023-05-09T22:23:22.713Z,10.90
2023-05-09T22:25:52.547Z,11.02
2023-05-09T22:28:22.323Z,10.76
2023-05-09T22:30:52.239Z,10.64
2023-05-09T22:33:21.964Z,10.85
2023-05-09T22:35:51.816Z,10.79
2023-05-09T22:38:21.675Z,10.77
2023-05-09T22:40:51.718Z,10.77
2023-05-09T22:43:21.332Z,10.70
2023-05-09T22:45:51.148Z,10.68
2023-05-09T22:48:20.666Z,10.88
2023-05-09T22:50:50.627Z,10.83
2023-05-09T22:53:20.150Z,10.81
2023-05-09T22:55:49.977Z,10.65
2023-05-09T22:58:19.555Z,10.73
2023-05-09T23:00:49.401Z,10.43
2023-05-09T23:03:19.217Z,10.41
2023-05-09T23:05:49.087Z,10.42
2023-05-09T23:08:18.896Z,10.45
2023-05-09T23:10:48.682Z,10.45
2023-05-09T23:13:18.837Z,10.30
2023-05-09T23:15:49.116Z,10.25
2023-05-09T23:18:21.356Z,10.68
2023-05-09T23:20:51.611Z,10.17
2023-05-09T23:23:21.494Z,10.17
2023-05-09T23:25:51.363Z,10.35
2023-05-09T23:28:22.757Z,10.28
2023-05-09T23:30:53.864Z,10.07
2023-05-09T23:33:22.642Z,10.08
2023-05-09T23:35:52.130Z,10.09
2023-05-09T23:38:22.424Z,9.94
2023-05-09T23:40:56.137Z,10.02
2023-05-09T23:43:26.351Z,9.74
2023-05-09T23:45:57.830Z,9.79
2023-05-09T23:48:26.907Z,9.79
2023-05-09T23:50:56.403Z,9.60
2023-05-09T23:53:26.462Z,9.73
2023-05-09T23:55:56.366Z,9.59
2023-05-09T23:58:26.239Z,9.55
